Terminal Aerodrome Forecast
Issued by NWS Rapid City, SD

Home | Current Version | Previous Version | Text Only | Print | Product List | Glossary On
Versions: 1 2 3 4 5 6 7 8 9 10 11 12 13
284
FTUS43 KUNR 231120
TAFRAP
TAF
KRAP 231120Z 2312/2412 35016G26KT P6SM BKN060
     FM231400 33024G34KT P6SM SCT040 BKN100
     FM232300 34012KT P6SM SCT250=

USA.gov is the U.S. government's official web portal to all federal, state and local government web resources and services.